Jepson Prairie Reserve, California Weather observations

Data are for 10 minute period ending at time listed.
 Day   Time   Solar   Ave.   Ave.  Ave.  Vector  Max.   Baro.   Total    
  of    of     Rad.   Air    Rel.  Wind   Wind   Wind  Press.  Precip.   
Year   Day            Temp.  Hum.  Speed  Dir.   Gust                    
2016   (PST)  Kw/m2    F      %     mph   deg.    mph    mb.     in.     
-------------------------------------------------------------------------
 342    5:10   0.00   42.6    79    8.6   338    10.5   1019.0    0.00 
 342    5:20   0.00   42.3    79    7.3   340     9.8   1019.0    0.00 
 342    5:30   0.00   42.1    79    7.7   337     9.4   1019.0    0.00 
 342    5:40   0.00   41.7    79    7.8   337     9.9   1019.0    0.00 
 342    5:50   0.00   41.5    78    8.2   336     9.7   1019.3    0.00 
 342    6:00   0.00   41.2    78    7.4   340     8.6   1019.3    0.00 
 342    6:10   0.00   40.3    79    4.4   350     7.0   1019.3    0.00 
 342    6:20   0.00   39.1    82    4.0   354     6.7   1019.3    0.00 
 342    6:30   0.00   39.1    80    4.4   348     6.0   1019.6    0.00 
 342    6:40   0.00   38.0    82    4.8    20     5.4   1019.6    0.00 
 342    6:50   0.00   36.5    85    3.6    24     4.8   1019.6    0.00 
 342    7:00   0.00   36.7    86    0.5    30     2.0   1020.0    0.00 
 342    7:10   0.00   36.6    83    1.3    35     2.6   1020.0    0.00 
 342    7:20   0.03   36.5    84    1.5    50     2.6   1020.0    0.00 
 342    7:30   0.05   34.0    88    1.9   178     4.2   1020.0    0.00 
 342    7:40   0.07   36.6    88    1.3    84     1.8   1020.0    0.00 
 342    7:50   0.07   38.4    87    1.9   148     2.4   1020.0    0.00 
 342    8:00   0.05   38.0    90    1.6   194     2.3   1020.0    0.00 
 342    8:10   0.05   38.4    91    1.5   198     1.8   1020.0    0.00 
 342    8:20   0.06   38.3    92    0.9   196     1.3   1020.3    0.00 
 342    8:30   0.06   37.6    90    1.5   151     3.1   1020.3    0.00 
 342    8:40   0.06   38.1    88    2.6   130     3.2   1020.3    0.00 
 342    8:50   0.07   38.5    89    3.5   122     4.5   1020.7    0.00 
 342    9:00   0.08   41.2    90    3.9   137     4.7   1020.7    0.00 
 342    9:10   0.11   40.7    85    3.8   117     4.7   1020.7    0.00 
 342    9:20   0.13   40.4    80    3.8   114     4.7   1020.7    0.00 
 342    9:30   0.12   40.5    78    4.7   108     5.9   1020.7    0.00 
 342    9:40   0.13   46.4    80    4.8    80     6.0   1020.7    0.00 
 342    9:50   0.13   43.0    79    3.6    81     4.9   1021.0    0.00 
 342   10:00   0.13   43.9    76    3.0    79     4.3   1021.0    0.00 
 342   10:10   0.26   45.2    76    4.8    44     6.4   1021.0    0.00 
 342   10:20   0.17   45.4    73    6.1    42     7.7   1021.0    0.00 
 342   10:30   0.20   45.1    71    6.2    37     8.4   1020.7    0.00 
 342   10:40   0.19   45.2    70    7.7    38    10.8   1020.7    0.00 
 342   10:50   0.18   45.1    68    7.2    36     9.0   1020.3    0.00 
 342   11:00   0.19   45.3    67    7.0    39    10.2   1020.7    0.00 
 342   11:10   0.26   46.0    67    5.8    42     8.1   1020.7    0.00 
 342   11:20   0.23   46.3    66    7.7    34    10.4   1020.3    0.00 
 342   11:30   0.42   47.0    66    7.7    36    10.2   1020.0    0.00 
 342   11:40   0.25   48.1    63    7.6    26    12.3   1019.6    0.00 
 342   11:50   0.20   48.6    56    8.8     4    12.4   1019.6    0.00 
 342   12:00   0.19   48.5    53    8.1     5    11.2   1019.6    0.00 
 342   12:10   0.20   48.7    51    8.7   354    11.1   1019.6    0.00 
 342   12:20   0.24   48.8    52    8.2     2    12.1   1019.6    0.00 
 342   12:30   0.17   49.0    50    8.6   349    11.5   1019.6    0.00 
 342   12:40   0.09   48.8    51    8.7   357    11.2   1019.6    0.00 
 342   12:50   0.08   48.5    53    8.2     2    10.0   1019.6    0.00 
 342   13:00   0.12   48.6    54    8.7    10    10.7   1019.6    0.00 
 342   13:10   0.09   48.6    54    9.8    16    12.3   1019.3    0.00 
 342   13:20   0.11   48.6    57    8.5    28    12.6   1019.3    0.00 
 342   13:30   0.09   48.3    62    6.8    42     9.3   1019.3    0.00 
 342   13:40   0.09   48.0    64    7.4    35     9.9   1019.3    0.00 
 342   13:50   0.08   47.8    67    6.0    58     8.5   1019.3    0.00 
 342   14:00   0.10   47.4    68    7.7    68     9.0   1019.3    0.00 
 342   14:10   0.18   47.5    67    8.3    53    10.2   1019.0    0.00 
 342   14:20   0.15   47.7    66    7.4    64     9.3   1019.0    0.00 
 342   14:30   0.13   47.8    65    7.6    64    10.0   1019.0    0.00 
 342   14:40   0.09   47.4    64    7.9    71     9.9   1019.0    0.00 
 342   14:50   0.08   47.5    64    7.8    64     9.9   1019.0    0.00 
 342   15:00   0.09   47.6    64    8.2    63    10.2   1018.6    0.00 
 342   15:10   0.07   47.5    63    7.9    56    10.3   1018.6    0.00 
 342   15:20   0.07   47.2    64    7.3    51     9.6   1018.6    0.00 
 342   15:30   0.05   46.9    64    6.2    50     8.3   1018.6    0.00 
 342   15:40   0.04   46.9    64    5.4    54     6.7   1019.0    0.00 
 342   15:50   0.05   46.9    64    4.5    39     5.9   1019.3    0.00 
 342   16:00   0.05   47.0    64    4.7    35     6.2   1019.0    0.00 
 342   16:10   0.03   46.9    68    4.8    50     6.9   1019.0    0.00 
 342   16:20   0.04   46.7    72    5.0    66     6.0   1019.0    0.00 
 342   16:30   0.02   46.6    73    4.7    73     5.6   1019.0    0.00 
 342   16:40   0.01   46.2    74    3.2    68     4.7   1019.0    0.00 
 342   16:50   0.00   46.1    75    2.1    52     3.1   1019.0    0.00 
 342   17:00   0.00   46.1    77    3.5    17     5.5   1019.3    0.00 
 342   17:10   0.00   45.8    79    6.7     4     8.5   1019.0    0.00 
 342   17:20   0.00   45.5    78    6.8     5     8.6   1019.3    0.00 
 342   17:30   0.00   45.4    78    6.6     6     8.3   1019.0    0.00 
 342   17:40   0.00   45.2    79    6.9     4     8.9   1019.3    0.00 
 342   17:50   0.00   45.1    80    6.3   356     9.3   1019.3    0.00 
 342   18:00   0.00   45.0    80    5.6   358     6.6   1019.3    0.00 
 342   18:10   0.00   44.8    81    5.6     5     6.9   1019.3    0.00 
 342   18:20   0.00   44.6    82    7.0   349     7.7   1019.3    0.00 
 342   18:30   0.00   44.7    79    7.7   348     9.7   1019.3    0.00 
 342   18:40   0.00   44.8    74    8.3   349    11.0   1019.3    0.00 
 342   18:50   0.00   44.6    75    8.5   352    10.3   1019.3    0.00 
 342   19:00   0.00   44.0    80    8.8     6    10.8   1019.3    0.00 
 342   19:10   0.00   43.8    82    8.8     1    10.4   1019.3    0.00 
 342   19:20   0.00   43.7    85    6.4    20     9.3   1019.0    0.00 
 342   19:30   0.00   43.5    86    6.7     4    10.0   1019.3    0.00 
 342   19:40   0.00   43.6    85    7.9   360     9.6   1019.0    0.00 
 342   19:50   0.00   43.5    85    8.2   359     9.8   1019.0    0.00 
 342   20:00   0.00   43.3    87    9.2   358    11.0   1019.0    0.01 
 342   20:10   0.00   43.3    87   10.2   350    12.6   1019.0    0.00 
 342   20:20   0.00   43.5    87    9.9   349    12.1   1019.0    0.00 
 342   20:30   0.00   43.2    86   13.4   334    18.4   1019.3    0.00 
 342   20:40   0.00   42.4    89   14.1   343    20.0   1019.3    0.00 
 342   20:50   0.00   41.9    91   16.2   332    20.3   1019.6    0.01 
 342   21:00   0.00   41.6    93   15.8   331    19.7   1019.6    0.01 
 342   21:10   0.00   41.1    94   16.3   335    21.7   1019.3    0.03 
 342   21:20   0.00   40.6    95   16.9   342    21.0   1019.0    0.02 
 342   21:30   0.00   40.5    96   13.4   343    18.5   1019.3    0.01 
 342   21:40   0.00   40.5    96    7.6     3    14.2   1019.3    0.01 
 342   21:50   0.00   40.5    96   15.1   332    19.6   1019.3    0.02 
 342   22:00   0.00   40.4    96   17.2   335    23.2   1019.0    0.01 
 342   22:10   0.00   40.3    97   15.3   344    22.5   1019.3    0.02 
 342   22:20   0.00   40.2    97   16.0   334    21.3   1019.0    0.03 
 342   22:30   0.00   40.1    97   16.5   341    20.1   1019.0    0.01 
 342   22:40   0.00   40.2    97   16.9   341    22.6   1019.0    0.00 
 342   22:50   0.00   40.2    98   14.3   343    18.5   1019.0    0.01 
 342   23:00   0.00   40.2    98   10.4   358    15.8   1019.0    0.01 
 342   23:10   0.00   40.3    98    7.9    14    13.3   1019.0    0.00 
 342   23:20   0.00   40.1    98    4.8    69    10.2   1019.0    0.01 
 342   23:30   0.00   40.1    98    9.8   338    15.3   1019.0    0.01 
 342   23:40   0.00   40.1    98   16.5   337    21.9   1018.6    0.02 
 342   23:50   0.00   40.0    98   15.7   340    21.3   1018.6    0.01 
 343    0:00   0.00   39.8    98   17.9   342    22.6   1018.6    0.01 
 343    0:10   0.00   39.7    99   15.9   340    22.6   1018.6    0.02 
 343    0:20   0.00   39.5    99   15.6   339    19.2   1018.6    0.01 
 343    0:30   0.00   39.5    99   15.1   340    19.1   1018.6    0.01 
 343    0:40   0.00   39.3    99   15.8   340    19.6   1018.6    0.00 
 343    0:50   0.00   39.3    99   16.8   337    21.0   1018.3    0.01 
 343    1:00   0.00   39.2    99   16.0   339    20.3   1018.3    0.01 
 343    1:10   0.00   39.2    99   14.0   346    19.4   1018.3    0.01 
 343    1:20   0.00   39.2    99   17.6   334    22.3   1018.3    0.01 
 343    1:30   0.00   39.3    99   17.8   332    21.8   1018.3    0.01 
 343    1:40   0.00   39.5    99   15.5   335    19.8   1018.3    0.01 
 343    1:50   0.00   39.4    99   13.4   342    17.1   1018.3    0.00 
 343    2:00   0.00   39.6    99   15.2   334    19.7   1018.3    0.00 
 343    2:10   0.00   39.9    99   13.6   336    17.8   1018.3    0.01 
 343    2:20   0.00   40.1    99   13.7   338    17.2   1018.3    0.01 
 343    2:30   0.00   40.0   100   12.9   339    16.8   1018.3    0.00 
 343    2:40   0.00   40.2   100   13.3   339    16.2   1018.3    0.01 
 343    2:50   0.00   40.4   100    9.8   348    12.4   1018.3    0.00 
 343    3:00   0.00   40.1   100   10.5   349    13.6   1018.3    0.01 
 343    3:10   0.00   40.2   100   12.5   345    15.3   1018.0    0.00 
 343    3:20   0.00   40.4   100   11.3   341    14.2   1018.0    0.00 
 343    3:30   0.00   41.0   100   11.1   351    13.3   1018.0    0.00 
 343    3:40   0.00   41.2   100   10.8   360    13.0   1018.0    0.03 
 343    3:50   0.00   41.3   100   10.7   348    13.0   1018.0    0.00 
 343    4:00   0.00   41.2   100    9.6   344    12.9   1018.0    0.00 
 343    4:10   0.00   41.0   100    8.6   351    13.1   1017.6    0.00 
 343    4:20   0.00   40.9   100   11.0   347    13.2   1017.6    0.02 
 343    4:30   0.00   40.9   100   10.6   349    13.2   1017.6    0.01 
 343    4:40   0.00   40.9   100    9.0   350    12.1   1017.6    0.01 
 343    4:50   0.00   41.1   100   11.9   346    15.1   1017.6    0.00 
 343    5:00   0.00   41.2   100   10.9   353    14.2   1017.6    0.02 

Return to Jepson Prairie Reserve graphs page.


Western Regional Climate Center,wrcc@dri.edu